createdAt,value
2018-11-27T05:25:05.665Z,20.47
2018-11-27T05:27:35.299Z,20.07
2018-11-27T05:30:05.873Z,20.33
2018-11-27T05:32:34.282Z,18.97
2018-11-27T05:35:02.839Z,21.90
2018-11-27T05:37:31.245Z,18.80
2018-11-27T05:39:59.653Z,20.07
2018-11-27T05:42:28.409Z,16.97
2018-11-27T05:44:57.338Z,18.63
2018-11-27T05:47:25.928Z,18.13
2018-11-27T05:49:54.744Z,18.47
2018-11-27T05:52:23.177Z,17.83
2018-11-27T05:54:51.543Z,20.30
2018-11-27T05:57:20.635Z,19.07
2018-11-27T05:59:48.754Z,20.00
2018-11-27T06:02:17.503Z,20.03
2018-11-27T06:04:46.212Z,20.17
2018-11-27T06:07:14.934Z,20.40
2018-11-27T06:09:43.303Z,19.00
2018-11-27T06:12:12.855Z,18.27
2018-11-27T06:14:41.274Z,21.03
2018-11-27T06:17:09.976Z,20.07
2018-11-27T06:19:38.615Z,20.50
2018-11-27T06:22:07.199Z,19.67
2018-11-27T06:24:36.008Z,20.67
2018-11-27T06:27:04.684Z,23.63
2018-11-27T06:29:33.438Z,22.50
2018-11-27T06:34:23.124Z,23.10
2018-11-27T06:36:52.043Z,22.83
2018-11-27T06:39:20.802Z,25.10
2018-11-27T06:41:49.585Z,28.13
2018-11-27T06:44:17.989Z,27.27
2018-11-27T06:46:46.941Z,26.03
2018-11-27T06:49:15.322Z,25.93
2018-11-27T06:51:44.212Z,25.30
2018-11-27T06:54:12.834Z,27.67
2018-11-27T06:56:41.843Z,28.70
2018-11-27T06:59:10.526Z,25.93
2018-11-27T07:01:38.937Z,27.27
2018-11-27T07:04:07.576Z,25.37
2018-11-27T07:06:36.265Z,27.47
2018-11-27T07:09:08.067Z,27.23
2018-11-27T07:11:37.371Z,26.63
2018-11-27T07:14:06.962Z,25.20
2018-11-27T07:16:35.420Z,27.53
2018-11-27T07:19:04.382Z,26.47
2018-11-27T07:21:32.990Z,26.93
2018-11-27T07:24:02.013Z,28.30
2018-11-27T07:26:30.466Z,28.83
2018-11-27T07:28:59.131Z,26.53
2018-11-27T07:31:27.871Z,27.70
2018-11-27T07:33:56.763Z,27.27
2018-11-27T07:36:25.491Z,27.93
2018-11-27T07:38:53.941Z,26.37
2018-11-27T07:41:22.583Z,31.30
2018-11-27T07:43:51.810Z,28.00
2018-11-27T07:46:20.221Z,31.43
2018-11-27T07:48:49.121Z,28.20
2018-11-27T07:51:17.553Z,29.67
2018-11-27T07:53:46.721Z,26.33
2018-11-27T07:56:15.700Z,26.47
2018-11-27T07:58:44.580Z,30.33
2018-11-27T08:01:13.259Z,29.40
2018-11-27T08:03:42.191Z,26.50
2018-11-27T08:06:11.160Z,26.07
2018-11-27T08:08:40.525Z,25.13
2018-11-27T08:11:09.507Z,23.47
2018-11-27T08:13:38.153Z,25.13
2018-11-27T08:16:07.160Z,22.60
2018-11-27T08:18:35.868Z,26.63
2018-11-27T08:21:05.790Z,22.17
2018-11-27T08:23:34.802Z,25.07
2018-11-27T08:26:03.240Z,23.83
2018-11-27T08:28:32.128Z,21.90
2018-11-27T08:31:01.122Z,24.50
2018-11-27T08:33:29.895Z,19.57
2018-11-27T08:35:59.541Z,22.67
2018-11-27T08:38:28.414Z,21.77
2018-11-27T08:40:57.131Z,22.30
2018-11-27T08:43:26.086Z,22.57
2018-11-27T08:45:54.550Z,21.37
2018-11-27T08:48:22.960Z,23.53
2018-11-27T08:50:51.980Z,25.37
2018-11-27T08:53:20.813Z,24.80
2018-11-27T08:55:49.829Z,22.00
2018-11-27T08:58:20.044Z,24.20
2018-11-27T09:00:48.595Z,23.53
2018-11-27T09:03:17.064Z,24.53
2018-11-27T09:05:46.255Z,22.63
2018-11-27T09:08:14.683Z,23.83
2018-11-27T09:10:43.532Z,23.67
2018-11-27T09:13:12.094Z,21.67
2018-11-27T09:15:40.402Z,23.47
2018-11-27T09:18:16.897Z,25.30
2018-11-27T09:20:45.699Z,25.67
2018-11-27T09:23:14.350Z,25.70
2018-11-27T09:25:42.970Z,25.40
2018-11-27T09:28:11.624Z,25.57
2018-11-27T09:30:40.404Z,26.90
2018-11-27T09:33:09.822Z,29.47
2018-11-27T09:35:38.266Z,29.07
2018-11-27T09:38:08.002Z,26.57
2018-11-27T09:40:37.064Z,29.33
2018-11-27T09:43:06.740Z,30.93
2018-11-27T09:45:36.098Z,28.93
2018-11-27T09:48:04.596Z,29.00
2018-11-27T09:50:33.195Z,30.83
2018-11-27T09:53:01.661Z,29.63
2018-11-27T09:55:30.077Z,28.40
2018-11-27T09:57:59.263Z,30.00
2018-11-27T10:00:29.808Z,30.03
2018-11-27T10:02:59.751Z,29.30
2018-11-27T10:05:28.686Z,27.60
2018-11-27T10:07:57.155Z,29.33
2018-11-27T10:10:26.688Z,28.70
2018-11-27T10:12:55.112Z,28.70
2018-11-27T10:15:24.992Z,27.43
2018-11-27T10:17:57.473Z,30.03
2018-11-27T10:20:27.659Z,30.40
2018-11-27T10:22:56.618Z,28.47
2018-11-27T10:25:25.234Z,30.93
2018-11-27T10:27:53.988Z,29.07
2018-11-27T10:30:24.571Z,28.20
2018-11-27T10:32:54.417Z,29.63
2018-11-27T10:35:25.165Z,30.63
2018-11-27T10:37:53.634Z,29.90
2018-11-27T10:40:22.043Z,31.43
2018-11-27T10:42:50.537Z,30.13
2018-11-27T10:45:20.170Z,30.17
2018-11-27T10:47:49.888Z,28.87
2018-11-27T10:50:19.059Z,28.90
2018-11-27T10:52:48.738Z,29.80
2018-11-27T10:55:18.565Z,29.63
2018-11-27T10:57:47.686Z,28.70
2018-11-27T11:00:29.823Z,30.97
2018-11-27T11:03:04.274Z,31.67
2018-11-27T11:05:34.975Z,32.10
2018-11-27T11:08:03.936Z,28.37
2018-11-27T11:10:33.058Z,32.87
2018-11-27T11:13:01.488Z,29.83
2018-11-27T11:15:30.285Z,31.77
2018-11-27T11:17:59.187Z,30.43
2018-11-27T11:20:27.671Z,31.53
2018-11-27T11:22:56.392Z,32.03
2018-11-27T11:25:25.339Z,34.83
2018-11-27T11:27:58.330Z,31.10
2018-11-27T11:30:26.769Z,36.50
2018-11-27T11:32:55.457Z,32.27
2018-11-27T11:35:24.102Z,37.60
2018-11-27T11:37:53.070Z,36.10
2018-11-27T11:40:23.557Z,39.30
2018-11-27T11:42:55.316Z,41.37
2018-11-27T11:45:23.779Z,37.83
2018-11-27T11:47:52.540Z,35.93
2018-11-27T11:50:23.323Z,40.17
2018-11-27T11:52:54.720Z,41.50
2018-11-27T11:55:23.184Z,40.80
2018-11-27T11:57:51.777Z,44.10
2018-11-27T12:00:24.418Z,40.03
2018-11-27T12:02:53.483Z,43.60
2018-11-27T12:05:25.049Z,41.33
2018-11-27T12:07:50.708Z,44.27
2018-11-27T12:10:19.528Z,42.40
2018-11-27T12:12:48.208Z,45.23
2018-11-27T12:15:18.155Z,46.43
2018-11-27T12:17:47.646Z,45.53
2018-11-27T12:20:17.666Z,48.33
2018-11-27T12:22:49.990Z,48.73
2018-11-27T12:25:23.999Z,47.80
2018-11-27T12:27:47.546Z,48.67
2018-11-27T12:30:17.509Z,49.23
2018-11-27T12:32:46.190Z,48.13
2018-11-27T12:35:16.912Z,53.17
2018-11-27T12:37:45.487Z,53.63
2018-11-27T12:40:25.361Z,48.30
2018-11-27T12:42:54.959Z,47.17
2018-11-27T12:45:25.758Z,45.00
2018-11-27T12:47:55.357Z,44.53
2018-11-27T12:50:26.123Z,42.07
2018-11-27T12:52:54.617Z,43.10
2018-11-27T12:55:24.152Z,41.13
2018-11-27T12:57:52.628Z,45.50
2018-11-27T13:00:23.652Z,41.60
2018-11-27T13:02:52.179Z,44.33
2018-11-27T13:05:23.487Z,47.40
2018-11-27T13:07:54.638Z,46.37
2018-11-27T13:10:23.687Z,46.83
2018-11-27T13:12:52.702Z,46.77
2018-11-27T13:15:22.198Z,44.27
2018-11-27T13:17:51.876Z,45.73
2018-11-27T13:20:21.093Z,46.97
2018-11-27T13:22:51.062Z,48.33
2018-11-27T13:25:21.535Z,45.33
2018-11-27T13:27:51.234Z,47.90
2018-11-27T13:30:23.455Z,43.30
2018-11-27T13:32:55.173Z,40.73
2018-11-27T13:35:24.038Z,47.70
2018-11-27T13:37:53.108Z,43.50
2018-11-27T13:40:21.831Z,46.73
2018-11-27T13:42:50.646Z,44.83
2018-11-27T13:45:19.308Z,45.27
2018-11-27T13:47:48.367Z,48.63
2018-11-27T13:50:18.129Z,45.40
2018-11-27T13:52:46.913Z,42.37
2018-11-27T13:55:19.143Z,47.47
2018-11-27T13:57:48.296Z,46.70
2018-11-27T14:00:18.522Z,47.20
2018-11-27T14:02:49.370Z,43.90
2018-11-27T14:05:19.083Z,44.80
2018-11-27T14:07:47.569Z,45.93
2018-11-27T14:10:16.768Z,46.23
2018-11-27T14:12:45.843Z,46.07
2018-11-27T14:15:18.216Z,46.47
2018-11-27T14:17:46.781Z,51.73
2018-11-27T14:20:15.688Z,46.83
2018-11-27T14:22:45.623Z,51.40
2018-11-27T14:25:14.564Z,48.80
2018-11-27T14:27:43.636Z,53.17
2018-11-27T14:30:17.817Z,51.90
2018-11-27T14:32:47.191Z,52.17
2018-11-27T14:35:16.683Z,55.93
2018-11-27T14:37:46.219Z,58.97
2018-11-27T14:40:17.449Z,69.37
2018-11-27T14:42:46.167Z,70.43
2018-11-27T14:45:16.663Z,58.17
2018-11-27T14:47:46.577Z,57.93
2018-11-27T14:50:15.050Z,69.80
2018-11-27T14:52:43.613Z,67.70
2018-11-27T14:55:15.213Z,56.57
2018-11-27T14:57:44.117Z,60.40
2018-11-27T15:00:20.849Z,57.53
2018-11-27T15:02:49.573Z,55.93
2018-11-27T15:05:23.076Z,56.20
2018-11-27T15:07:51.737Z,59.57
2018-11-27T15:10:20.757Z,55.30
2018-11-27T15:12:49.257Z,57.87
2018-11-27T15:15:18.399Z,54.43
2018-11-27T15:17:46.884Z,56.20
2018-11-27T15:20:18.941Z,55.00
2018-11-27T15:22:48.453Z,55.20
2018-11-27T15:25:17.136Z,55.53
2018-11-27T15:27:46.120Z,53.43
2018-11-27T15:30:19.098Z,58.30
2018-11-27T15:32:48.001Z,55.13
2018-11-27T15:35:16.974Z,57.67
2018-11-27T15:37:45.907Z,55.10
2018-11-27T15:40:17.133Z,56.37
2018-11-27T15:42:45.653Z,55.67
2018-11-27T15:45:20.424Z,54.67
2018-11-27T15:47:49.442Z,58.60
2018-11-27T15:50:18.401Z,107.23
2018-11-27T15:52:47.736Z,106.43
2018-11-27T15:55:18.856Z,81.23
2018-11-27T15:57:49.103Z,74.60
2018-11-27T16:00:19.228Z,63.23
2018-11-27T16:02:47.907Z,57.23
2018-11-27T16:05:17.206Z,63.40
2018-11-27T16:07:46.088Z,61.63
2018-11-27T16:10:16.961Z,83.43
2018-11-27T16:12:45.550Z,65.77
2018-11-27T16:15:16.789Z,72.10
2018-11-27T16:17:45.515Z,69.20
2018-11-27T16:20:16.521Z,65.13
2018-11-27T16:22:47.118Z,59.93
2018-11-27T16:25:19.791Z,56.80
2018-11-27T16:27:48.316Z,57.60
2018-11-27T16:30:24.747Z,54.50
2018-11-27T16:32:53.549Z,60.53
2018-11-27T16:35:22.016Z,58.33
2018-11-27T16:37:54.105Z,57.10
2018-11-27T16:40:33.282Z,56.67
2018-11-27T16:43:02.322Z,56.37
2018-11-27T16:45:31.015Z,56.27
2018-11-27T16:47:59.663Z,58.00
2018-11-27T16:50:28.232Z,57.87
2018-11-27T16:52:56.773Z,57.70
2018-11-27T16:55:25.206Z,57.93
2018-11-27T16:57:53.817Z,53.93
2018-11-27T17:00:26.508Z,54.60
2018-11-27T17:02:58.100Z,53.13
2018-11-27T17:05:29.053Z,56.20
2018-11-27T17:07:58.216Z,51.20
2018-11-27T17:10:26.786Z,52.60
2018-11-27T17:12:56.719Z,53.40
2018-11-27T17:15:26.781Z,58.83
2018-11-27T17:17:55.264Z,57.03
2018-11-27T17:20:25.252Z,59.17
2018-11-27T17:22:54.641Z,54.83
2018-11-27T17:25:23.093Z,60.33
2018-11-27T17:27:52.824Z,261.70
2018-11-27T17:30:32.399Z,153.70
2018-11-27T17:33:01.267Z,142.33
2018-11-27T17:35:30.527Z,100.17
2018-11-27T17:37:59.166Z,62.40
2018-11-27T17:40:28.178Z,64.47
2018-11-27T17:42:56.705Z,60.67
2018-11-27T17:45:25.844Z,59.27
2018-11-27T17:47:54.876Z,57.83
2018-11-27T17:50:23.797Z,53.53
2018-11-27T17:52:52.577Z,52.83
2018-11-27T17:55:21.236Z,53.63
2018-11-27T17:57:50.322Z,56.60
2018-11-27T18:00:22.707Z,59.13
2018-11-27T18:02:53.731Z,55.07
2018-11-27T18:05:22.421Z,60.10
2018-11-27T18:07:51.162Z,57.53
2018-11-27T18:10:20.703Z,55.83
2018-11-27T18:12:50.072Z,62.60
2018-11-27T18:15:21.117Z,58.83
2018-11-27T18:17:50.049Z,56.93
2018-11-27T18:20:18.533Z,59.30
2018-11-27T18:22:47.214Z,53.50
2018-11-27T18:25:18.635Z,55.37
2018-11-27T18:27:48.285Z,52.90
2018-11-27T18:30:21.902Z,57.07
2018-11-27T18:32:50.570Z,54.63
2018-11-27T18:35:20.348Z,53.93
2018-11-27T18:37:49.673Z,54.47
2018-11-27T18:40:18.558Z,50.67
2018-11-27T18:42:47.731Z,52.10
2018-11-27T18:45:27.524Z,47.33
2018-11-27T18:47:56.093Z,47.23
2018-11-27T18:50:26.069Z,49.83
2018-11-27T18:52:55.098Z,51.60
2018-11-27T18:55:23.792Z,51.10
2018-11-27T18:57:52.756Z,50.63
2018-11-27T19:00:25.488Z,49.37
2018-11-27T19:02:54.110Z,48.57
2018-11-27T19:05:23.122Z,44.47
2018-11-27T19:07:51.628Z,45.97
2018-11-27T19:10:24.924Z,79.63
2018-11-27T19:12:53.808Z,57.30
2018-11-27T19:15:27.067Z,51.27
2018-11-27T19:17:57.901Z,52.33
2018-11-27T19:20:26.400Z,44.67
2018-11-27T19:22:55.059Z,48.17
2018-11-27T19:25:23.726Z,47.00
2018-11-27T19:27:52.358Z,47.00
2018-11-27T19:30:21.918Z,44.37
2018-11-27T19:32:50.471Z,47.23
2018-11-27T19:35:25.201Z,67.13
2018-11-27T19:37:50.208Z,60.70
2018-11-27T19:40:19.865Z,54.87
2018-11-27T19:42:48.845Z,46.60
2018-11-27T19:45:19.797Z,44.57
2018-11-27T19:47:48.347Z,47.70
2018-11-27T19:50:16.915Z,42.97
2018-11-27T19:52:47.329Z,45.90
2018-11-27T19:55:16.902Z,50.30
2018-11-27T19:57:45.578Z,52.97
2018-11-27T20:00:22.757Z,47.20
2018-11-27T20:02:51.764Z,47.13
2018-11-27T20:05:21.781Z,46.60
2018-11-27T20:07:50.436Z,46.43
2018-11-27T20:10:19.684Z,43.77
2018-11-27T20:12:48.403Z,43.13
2018-11-27T20:15:25.458Z,46.47
2018-11-27T20:17:55.581Z,41.00
2018-11-27T20:20:25.739Z,42.77
2018-11-27T20:22:55.833Z,46.40
2018-11-27T20:25:25.167Z,43.30
2018-11-27T20:27:54.769Z,43.60
2018-11-27T20:30:25.809Z,44.90
2018-11-27T20:32:57.501Z,50.43
2018-11-27T20:35:26.965Z,43.07
2018-11-27T20:37:56.432Z,45.40
2018-11-27T20:40:25.677Z,44.17
2018-11-27T20:42:54.151Z,45.00
2018-11-27T20:45:24.303Z,46.33
2018-11-27T20:48:04.753Z,45.40
2018-11-27T20:50:33.187Z,45.57
2018-11-27T20:53:01.772Z,44.33
2018-11-27T20:55:30.455Z,48.33
2018-11-27T20:58:00.024Z,43.80
2018-11-27T21:00:38.139Z,50.27
2018-11-27T21:03:08.121Z,46.87
2018-11-27T21:05:36.865Z,48.00
2018-11-27T21:08:06.368Z,50.63
2018-11-27T21:10:35.159Z,51.50
2018-11-27T21:13:04.026Z,51.83
2018-11-27T21:15:32.663Z,47.70
2018-11-27T21:18:01.431Z,49.70
2018-11-27T21:20:30.496Z,50.30
2018-11-27T21:22:59.174Z,47.93
2018-11-27T21:25:28.035Z,45.73
2018-11-27T21:27:59.515Z,43.37
2018-11-27T21:30:28.512Z,44.83
2018-11-27T21:32:57.344Z,45.83
2018-11-27T21:35:25.840Z,44.17
2018-11-27T21:37:54.360Z,41.03
2018-11-27T21:40:23.614Z,43.30
2018-11-27T21:42:52.608Z,39.67
2018-11-27T21:45:24.680Z,43.13
2018-11-27T21:47:54.084Z,40.93
2018-11-27T21:50:28.391Z,39.40
2018-11-27T21:52:58.050Z,42.47
2018-11-27T21:55:26.563Z,40.40
2018-11-27T21:57:55.615Z,39.40
2018-11-27T22:00:26.347Z,37.40
2018-11-27T22:02:55.324Z,37.47
2018-11-27T22:05:23.990Z,37.80
2018-11-27T22:07:52.812Z,36.33
2018-11-27T22:10:23.367Z,37.57
2018-11-27T22:12:55.322Z,34.60
2018-11-27T22:15:38.500Z,36.20
2018-11-27T22:18:09.279Z,35.37
2018-11-27T22:20:38.000Z,36.70
2018-11-27T22:23:07.384Z,36.13
2018-11-27T22:25:36.217Z,35.47
2018-11-27T22:28:06.143Z,35.50
2018-11-27T22:30:34.823Z,36.40
